Volta Grande, Brazil
Current Conditions -  °F | °C
As of 7:35 PM on Sunday 23 Nov 2014 (Local Time) from SBJF Reporting Station
Drizzle Drizzle  
Wind Chill: 66°   Ceiling: 500
Heat Index: 66°   Visibility: 2.5mi
Dew Point: 66°   Wind: 12mph
Humidity: 100%   Direction: 210°SSW
Pressure: 30.06"   Gusts: NA
Location:  21.77°S, 42.54°W
Report Text: SBJF 232135Z 21010KT 4000 -DZ BKN005 OVC070 19/19 Q1018
Loading
Personal Weather Stations






























Interactive Weather Map New forecast layout! Learn more

10-Day Weather Forecast

Advertisements
Track Severe Weather on mobile